sensor_id;sensor_type;location;lat;lon;timestamp;pressure;altitude;pressure_sealevel;temperature;humidity
69574;BME280;62840;52.366;5.980;2023-02-18T00:02:21;102050.81;;;10.29;74.21
69574;BME280;62840;52.366;5.980;2023-02-18T00:04:47;102056.13;;;10.29;74.22
69574;BME280;62840;52.366;5.980;2023-02-18T00:07:12;102041.97;;;10.28;74.27
69574;BME280;62840;52.366;5.980;2023-02-18T00:09:38;102050.81;;;10.29;74.27
69574;BME280;62840;52.366;5.980;2023-02-18T00:12:04;102049.94;;;10.28;74.24
69574;BME280;62840;52.366;5.980;2023-02-18T00:14:33;102049.06;;;10.28;74.25
69574;BME280;62840;52.366;5.980;2023-02-18T00:16:59;102043.75;;;10.28;74.11
69574;BME280;62840;52.366;5.980;2023-02-18T00:19:24;102045.47;;;10.29;74.08
69574;BME280;62840;52.366;5.980;2023-02-18T00:21:50;102035.56;;;10.31;74.14
69574;BME280;62840;52.366;5.980;2023-02-18T00:24:16;102039.94;;;10.32;74.19
69574;BME280;62840;52.366;5.980;2023-02-18T00:26:42;102047.00;;;10.33;74.05
69574;BME280;62840;52.366;5.980;2023-02-18T00:29:08;102039.94;;;10.32;74.05
69574;BME280;62840;52.366;5.980;2023-02-18T00:31:38;102041.66;;;10.33;74.15
69574;BME280;62840;52.366;5.980;2023-02-18T00:34:04;102038.03;;;10.34;74.11
69574;BME280;62840;52.366;5.980;2023-02-18T00:36:30;102041.47;;;10.36;74.30
69574;BME280;62840;52.366;5.980;2023-02-18T00:38:59;102039.56;;;10.38;74.04
69574;BME280;62840;52.366;5.980;2023-02-18T00:41:27;102032.50;;;10.37;74.09
69574;BME280;62840;52.366;5.980;2023-02-18T00:43:54;102033.38;;;10.37;74.01
69574;BME280;62840;52.366;5.980;2023-02-18T00:46:21;102027.16;;;10.37;74.24
69574;BME280;62840;52.366;5.980;2023-02-18T00:48:51;102018.41;;;10.35;74.25
69574;BME280;62840;52.366;5.980;2023-02-18T00:51:17;102023.72;;;10.35;74.29
69574;BME280;62840;52.366;5.980;2023-02-18T00:53:43;102017.38;;;10.37;74.42
69574;BME280;62840;52.366;5.980;2023-02-18T00:56:09;102019.06;;;10.38;74.24
69574;BME280;62840;52.366;5.980;2023-02-18T00:58:35;102018.13;;;10.39;74.29
69574;BME280;62840;52.366;5.980;2023-02-18T01:01:01;102027.00;;;10.40;74.33
69574;BME280;62840;52.366;5.980;2023-02-18T01:03:28;102028.91;;;10.38;74.24
69574;BME280;62840;52.366;5.980;2023-02-18T01:05:57;102014.59;;;10.39;74.41
69574;BME280;62840;52.366;5.980;2023-02-18T01:08:22;102010.22;;;10.38;74.52
69574;BME280;62840;52.366;5.980;2023-02-18T01:10:52;102002.22;;;10.38;74.52
69574;BME280;62840;52.366;5.980;2023-02-18T01:13:20;101993.25;;;10.39;74.50
69574;BME280;62840;52.366;5.980;2023-02-18T01:15:46;102002.13;;;10.39;74.56
69574;BME280;62840;52.366;5.980;2023-02-18T01:18:13;102000.31;;;10.40;74.65
69574;BME280;62840;52.366;5.980;2023-02-18T01:20:40;102002.03;;;10.41;74.67
69574;BME280;62840;52.366;5.980;2023-02-18T01:23:10;102000.31;;;10.40;74.63
69574;BME280;62840;52.366;5.980;2023-02-18T01:25:36;102000.31;;;10.40;74.72
69574;BME280;62840;52.366;5.980;2023-02-18T01:28:03;101992.31;;;10.40;74.65
69574;BME280;62840;52.366;5.980;2023-02-18T01:30:30;101980.69;;;10.41;74.54
69574;BME280;62840;52.366;5.980;2023-02-18T01:32:57;101975.34;;;10.41;74.77
69574;BME280;62840;52.366;5.980;2023-02-18T01:35:24;101973.44;;;10.43;74.64
69574;BME280;62840;52.366;5.980;2023-02-18T01:37:50;101973.44;;;10.43;74.73
69574;BME280;62840;52.366;5.980;2023-02-18T01:40:22;101968.13;;;10.43;74.78
69574;BME280;62840;52.366;5.980;2023-02-18T01:42:50;101979.63;;;10.43;74.70
69574;BME280;62840;52.366;5.980;2023-02-18T01:45:42;101982.22;;;10.45;74.94
69574;BME280;62840;52.366;5.980;2023-02-18T01:48:17;101967.19;;;10.44;74.79
69574;BME280;62840;52.366;5.980;2023-02-18T01:50:50;101967.19;;;10.44;75.08
69574;BME280;62840;52.366;5.980;2023-02-18T01:53:20;101962.78;;;10.43;74.82
69574;BME280;62840;52.366;5.980;2023-02-18T01:55:54;101971.53;;;10.45;74.98
69574;BME280;62840;52.366;5.980;2023-02-18T01:58:20;101949.34;;;10.44;74.91
69574;BME280;62840;52.366;5.980;2023-02-18T02:00:46;101944.88;;;10.45;74.98
69574;BME280;62840;52.366;5.980;2023-02-18T02:03:12;101941.25;;;10.46;75.26
69574;BME280;62840;52.366;5.980;2023-02-18T02:05:37;101934.97;;;10.47;75.23
69574;BME280;62840;52.366;5.980;2023-02-18T02:08:04;101938.59;;;10.46;74.99
69574;BME280;62840;52.366;5.980;2023-02-18T02:10:44;101920.78;;;10.46;75.26
69574;BME280;62840;52.366;5.980;2023-02-18T02:13:31;101921.63;;;10.47;75.08
69574;BME280;62840;52.366;5.980;2023-02-18T02:16:16;101911.16;;;10.44;75.24
69574;BME280;62840;52.366;5.980;2023-02-18T02:18:58;101911.16;;;10.44;75.25
69574;BME280;62840;52.366;5.980;2023-02-18T02:25:08;101895.16;;;10.44;75.41
69574;BME280;62840;52.366;5.980;2023-02-18T02:31:42;101883.84;;;10.40;75.39
69574;BME280;62840;52.366;5.980;2023-02-18T02:34:38;101883.16;;;10.37;75.53
69574;BME280;62840;52.366;5.980;2023-02-18T02:37:15;101890.22;;;10.38;75.61
69574;BME280;62840;52.366;5.980;2023-02-18T02:39:56;101884.03;;;10.37;75.64
69574;BME280;62840;52.366;5.980;2023-02-18T02:42:39;101871.56;;;10.38;75.73
69574;BME280;62840;52.366;5.980;2023-02-18T02:45:17;101860.13;;;10.36;75.74
69574;BME280;62840;52.366;5.980;2023-02-18T02:47:56;101845.06;;;10.35;75.71
69574;BME280;62840;52.366;5.980;2023-02-18T02:50:39;101831.75;;;10.35;75.52
69574;BME280;62840;52.366;5.980;2023-02-18T02:53:15;101826.63;;;10.32;75.58
69574;BME280;62840;52.366;5.980;2023-02-18T02:55:46;101822.81;;;10.36;75.57
69574;BME280;62840;52.366;5.980;2023-02-18T02:58:15;101812.13;;;10.36;75.55
69574;BME280;62840;52.366;5.980;2023-02-18T03:00:55;101804.03;;;10.37;75.47
69574;BME280;62840;52.366;5.980;2023-02-18T03:07:14;101793.88;;;10.30;75.58
69574;BME280;62840;52.366;5.980;2023-02-18T03:10:06;101801.13;;;10.28;75.55
69574;BME280;62840;52.366;5.980;2023-02-18T03:12:48;101800.19;;;10.29;75.72
69574;BME280;62840;52.366;5.980;2023-02-18T03:15:37;101800.19;;;10.29;75.73
69574;BME280;62840;52.366;5.980;2023-02-18T03:18:15;101788.66;;;10.28;75.71
69574;BME280;62840;52.366;5.980;2023-02-18T03:20:50;101792.25;;;10.27;75.68
69574;BME280;62840;52.366;5.980;2023-02-18T03:23:27;101786.09;;;10.27;75.60
69574;BME280;62840;52.366;5.980;2023-02-18T03:25:59;101781.69;;;10.25;75.70
69574;BME280;62840;52.366;5.980;2023-02-18T03:28:27;101779.25;;;10.22;75.49
69574;BME280;62840;52.366;5.980;2023-02-18T03:30:58;101770.50;;;10.20;75.96
69574;BME280;62840;52.366;5.980;2023-02-18T03:33:32;101763.47;;;10.19;76.05
69574;BME280;62840;52.366;5.980;2023-02-18T03:36:02;101755.66;;;10.16;76.16
69574;BME280;62840;52.366;5.980;2023-02-18T03:38:34;101763.47;;;10.19;75.94
69574;BME280;62840;52.366;5.980;2023-02-18T03:41:04;101756.22;;;10.21;75.97
69574;BME280;62840;52.366;5.980;2023-02-18T03:43:30;101762.50;;;10.20;76.25
69574;BME280;62840;52.366;5.980;2023-02-18T03:45:57;101754.72;;;10.17;76.09
69574;BME280;62840;52.366;5.980;2023-02-18T03:48:23;101747.47;;;10.19;76.20
69574;BME280;62840;52.366;5.980;2023-02-18T03:50:49;101725.25;;;10.19;76.26
69574;BME280;62840;52.366;5.980;2023-02-18T03:53:15;101718.25;;;10.18;76.28
69574;BME280;62840;52.366;5.980;2023-02-18T03:55:43;101720.91;;;10.18;76.29
69574;BME280;62840;52.366;5.980;2023-02-18T03:58:09;101726.31;;;10.16;76.52
69574;BME280;62840;52.366;5.980;2023-02-18T04:00:35;101722.91;;;10.14;76.50
69574;BME280;62840;52.366;5.980;2023-02-18T04:03:00;101713.97;;;10.15;76.60
69574;BME280;62840;52.366;5.980;2023-02-18T04:05:26;101701.41;;;10.17;76.58
69574;BME280;62840;52.366;5.980;2023-02-18T04:07:52;101697.56;;;10.21;76.42
69574;BME280;62840;52.366;5.980;2023-02-18T04:10:18;101696.69;;;10.21;76.46
69574;BME280;62840;52.366;5.980;2023-02-18T04:12:46;101694.78;;;10.23;76.53
69574;BME280;62840;52.366;5.980;2023-02-18T04:15:12;101684.97;;;10.23;76.58
69574;BME280;62840;52.366;5.980;2023-02-18T04:17:37;101683.94;;;10.26;76.68
69574;BME280;62840;52.366;5.980;2023-02-18T04:20:05;101691.06;;;10.25;76.63
69574;BME280;62840;52.366;5.980;2023-02-18T04:22:32;101688.38;;;10.25;76.63
69574;BME280;62840;52.366;5.980;2023-02-18T04:24:58;101698.00;;;10.28;76.75
69574;BME280;62840;52.366;5.980;2023-02-18T04:27:24;101691.81;;;10.28;76.60
69574;BME280;62840;52.366;5.980;2023-02-18T04:29:52;101684.56;;;10.30;76.62
69574;BME280;62840;52.366;5.980;2023-02-18T04:32:18;101673.91;;;10.30;76.81
69574;BME280;62840;52.366;5.980;2023-02-18T04:34:43;101678.28;;;10.31;76.74
69574;BME280;62840;52.366;5.980;2023-02-18T04:37:09;101669.31;;;10.32;76.77
69574;BME280;62840;52.366;5.980;2023-02-18T04:39:35;101666.41;;;10.35;76.71
69574;BME280;62840;52.366;5.980;2023-02-18T04:42:01;101653.97;;;10.35;76.84
69574;BME280;62840;52.366;5.980;2023-02-18T04:44:26;101647.66;;;10.36;76.86
69574;BME280;62840;52.366;5.980;2023-02-18T04:46:55;101641.47;;;10.36;76.79
69574;BME280;62840;52.366;5.980;2023-02-18T04:49:20;101641.47;;;10.36;76.81
69574;BME280;62840;52.366;5.980;2023-02-18T04:51:46;101634.22;;;10.38;77.09
69574;BME280;62840;52.366;5.980;2023-02-18T04:54:12;101630.59;;;10.39;77.08
69574;BME280;62840;52.366;5.980;2023-02-18T04:56:38;101625.06;;;10.42;77.08
69574;BME280;62840;52.366;5.980;2023-02-18T04:59:03;101611.72;;;10.42;76.94
69574;BME280;62840;52.366;5.980;2023-02-18T05:01:29;101612.47;;;10.44;77.17
69574;BME280;62840;52.366;5.980;2023-02-18T05:03:57;101608.09;;;10.43;77.15
69574;BME280;62840;52.366;5.980;2023-02-18T05:06:23;101604.50;;;10.44;77.22
69574;BME280;62840;52.366;5.980;2023-02-18T05:08:49;101607.16;;;10.44;77.06
69574;BME280;62840;52.366;5.980;2023-02-18T05:11:15;101598.19;;;10.45;77.13
69574;BME280;62840;52.366;5.980;2023-02-18T05:13:41;101601.59;;;10.47;77.18
69574;BME280;62840;52.366;5.980;2023-02-18T05:16:06;101596.34;;;10.45;77.20
69574;BME280;62840;52.366;5.980;2023-02-18T05:18:32;101585.69;;;10.45;77.31
69574;BME280;62840;52.366;5.980;2023-02-18T05:21:01;101584.63;;;10.48;77.35
69574;BME280;62840;52.366;5.980;2023-02-18T05:23:26;101581.94;;;10.48;77.25
69574;BME280;62840;52.366;5.980;2023-02-18T05:25:53;101586.25;;;10.51;77.26
69574;BME280;62840;52.366;5.980;2023-02-18T05:28:19;101580.03;;;10.50;77.33
69574;BME280;62840;52.366;5.980;2023-02-18T05:30:45;101565.94;;;10.48;77.28
69574;BME280;62840;52.366;5.980;2023-02-18T05:33:10;101564.91;;;10.51;77.50
69574;BME280;62840;52.366;5.980;2023-02-18T05:35:36;101557.84;;;10.50;77.38
69574;BME280;62840;52.366;5.980;2023-02-18T05:38:04;101562.09;;;10.52;77.40
69574;BME280;62840;52.366;5.980;2023-02-18T05:40:30;101556.66;;;10.54;77.65
69574;BME280;62840;52.366;5.980;2023-02-18T05:42:56;101555.84;;;10.53;77.48
69574;BME280;62840;52.366;5.980;2023-02-18T05:45:22;101569.16;;;10.53;77.58
69574;BME280;62840;52.366;5.980;2023-02-18T05:47:48;101553.16;;;10.53;77.55
69574;BME280;62840;52.366;5.980;2023-02-18T05:50:14;101559.44;;;10.52;77.86
69574;BME280;62840;52.366;5.980;2023-02-18T05:52:39;101553.16;;;10.53;77.92
69574;BME280;62840;52.366;5.980;2023-02-18T05:55:08;101548.69;;;10.54;77.77
69574;BME280;62840;52.366;5.980;2023-02-18T05:57:34;101545.91;;;10.55;77.82
69574;BME280;62840;52.366;5.980;2023-02-18T05:59:59;101545.91;;;10.55;77.87
69574;BME280;62840;52.366;5.980;2023-02-18T06:02:25;101540.56;;;10.55;77.84
69574;BME280;62840;52.366;5.980;2023-02-18T06:04:51;101552.09;;;10.56;77.68
69574;BME280;62840;52.366;5.980;2023-02-18T06:07:17;101524.44;;;10.57;78.05
69574;BME280;62840;52.366;5.980;2023-02-18T06:09:42;101545.91;;;10.55;77.93
69574;BME280;62840;52.366;5.980;2023-02-18T06:12:11;101542.25;;;10.56;77.94
69574;BME280;62840;52.366;5.980;2023-02-18T06:14:37;101548.44;;;10.57;77.69
69574;BME280;62840;52.366;5.980;2023-02-18T06:17:03;101545.69;;;10.58;77.82
69574;BME280;62840;52.366;5.980;2023-02-18T06:19:28;101543.97;;;10.57;78.03
69574;BME280;62840;52.366;5.980;2023-02-18T06:21:54;101560.69;;;10.59;77.85
69574;BME280;62840;52.366;5.980;2023-02-18T06:24:20;101574.03;;;10.59;77.97
69574;BME280;62840;52.366;5.980;2023-02-18T06:26:45;101560.69;;;10.59;78.07
69574;BME280;62840;52.366;5.980;2023-02-18T06:29:14;101552.69;;;10.59;78.07
69574;BME280;62840;52.366;5.980;2023-02-18T06:31:40;101551.00;;;10.58;78.33
69574;BME280;62840;52.366;5.980;2023-02-18T06:34:05;101548.34;;;10.58;78.16
69574;BME280;62840;52.366;5.980;2023-02-18T06:36:31;101545.69;;;10.58;78.18
69574;BME280;62840;52.366;5.980;2023-02-18T06:38:57;101545.69;;;10.58;78.28
69574;BME280;62840;52.366;5.980;2023-02-18T06:41:23;101545.56;;;10.60;78.14
69574;BME280;62840;52.366;5.980;2023-02-18T06:43:49;101552.69;;;10.59;78.20
69574;BME280;62840;52.366;5.980;2023-02-18T06:46:17;101553.56;;;10.60;78.15
69574;BME280;62840;52.366;5.980;2023-02-18T06:48:43;101541.84;;;10.62;78.21
69574;BME280;62840;52.366;5.980;2023-02-18T06:51:09;101542.69;;;10.63;78.02
69574;BME280;62840;52.366;5.980;2023-02-18T06:53:35;101532.84;;;10.63;78.37
69574;BME280;62840;52.366;5.980;2023-02-18T06:56:00;101541.84;;;10.62;78.43
69574;BME280;62840;52.366;5.980;2023-02-18T06:58:26;101540.00;;;10.63;78.04
69574;BME280;62840;52.366;5.980;2023-02-18T07:00:52;101534.56;;;10.64;78.22
69574;BME280;62840;52.366;5.980;2023-02-18T07:03:20;101529.25;;;10.64;78.11
69574;BME280;62840;52.366;5.980;2023-02-18T07:05:46;101517.59;;;10.65;78.33
69574;BME280;62840;52.366;5.980;2023-02-18T07:08:12;101528.25;;;10.65;78.25
69574;BME280;62840;52.366;5.980;2023-02-18T07:10:38;101525.59;;;10.65;78.16
69574;BME280;62840;52.366;5.980;2023-02-18T07:13:04;101514.91;;;10.65;78.30
69574;BME280;62840;52.366;5.980;2023-02-18T07:15:30;101521.34;;;10.63;78.19
69574;BME280;62840;52.366;5.980;2023-02-18T07:17:56;101512.50;;;10.62;78.05
69574;BME280;62840;52.366;5.980;2023-02-18T07:20:25;101511.50;;;10.63;78.14
69574;BME280;62840;52.366;5.980;2023-02-18T07:22:52;101513.22;;;10.64;78.16
69574;BME280;62840;52.366;5.980;2023-02-18T07:25:18;101508.00;;;10.63;78.30
69574;BME280;62840;52.366;5.980;2023-02-18T07:27:44;101516.84;;;10.63;78.07
69574;BME280;62840;52.366;5.980;2023-02-18T07:30:10;101506.91;;;10.65;78.08
69574;BME280;62840;52.366;5.980;2023-02-18T07:32:37;101509.59;;;10.65;78.05
69574;BME280;62840;52.366;5.980;2023-02-18T07:35:03;101508.75;;;10.65;78.35
69574;BME280;62840;52.366;5.980;2023-02-18T07:37:32;101510.75;;;10.61;78.27
69574;BME280;62840;52.366;5.980;2023-02-18T07:39:58;101514.31;;;10.62;78.12
69574;BME280;62840;52.366;5.980;2023-02-18T07:42:24;101507.91;;;10.64;78.28
69574;BME280;62840;52.366;5.980;2023-02-18T07:44:49;101510.66;;;10.63;78.25
69574;BME280;62840;52.366;5.980;2023-02-18T07:47:16;101520.50;;;10.62;78.30
69574;BME280;62840;52.366;5.980;2023-02-18T07:49:42;101515.16;;;10.62;78.46
69574;BME280;62840;52.366;5.980;2023-02-18T07:52:08;101516.09;;;10.61;78.35
69574;BME280;62840;52.366;5.980;2023-02-18T07:54:36;101517.81;;;10.62;78.06
69574;BME280;62840;52.366;5.980;2023-02-18T07:57:02;101529.25;;;10.64;78.29
69574;BME280;62840;52.366;5.980;2023-02-18T07:59:28;101532.84;;;10.63;78.44
69574;BME280;62840;52.366;5.980;2023-02-18T08:01:54;101529.25;;;10.64;78.43
69574;BME280;62840;52.366;5.980;2023-02-18T08:04:20;101531.16;;;10.62;78.39
69574;BME280;62840;52.366;5.980;2023-02-18T08:06:48;101530.31;;;10.62;78.51
69574;BME280;62840;52.366;5.980;2023-02-18T08:09:15;101522.19;;;10.63;78.30
69574;BME280;62840;52.366;5.980;2023-02-18T08:11:44;101524.09;;;10.61;78.37
69574;BME280;62840;52.366;5.980;2023-02-18T08:14:10;101523.25;;;10.61;78.19
69574;BME280;62840;52.366;5.980;2023-02-18T08:16:36;101524.09;;;10.61;78.32
69574;BME280;62840;52.366;5.980;2023-02-18T08:19:02;101525.94;;;10.61;78.19
69574;BME280;62840;52.366;5.980;2023-02-18T08:21:29;101523.25;;;10.61;78.25
69574;BME280;62840;52.366;5.980;2023-02-18T08:23:56;101531.38;;;10.59;78.47
69574;BME280;62840;52.366;5.980;2023-02-18T08:26:23;101535.97;;;10.57;78.11
69574;BME280;62840;52.366;5.980;2023-02-18T08:28:51;101527.97;;;10.57;78.23
69574;BME280;62840;52.366;5.980;2023-02-18T08:31:18;101526.03;;;10.59;78.37
69574;BME280;62840;52.366;5.980;2023-02-18T08:33:46;101525.09;;;10.60;78.20
69574;BME280;62840;52.366;5.980;2023-02-18T08:36:12;101527.75;;;10.60;78.34
69574;BME280;62840;52.366;5.980;2023-02-18T08:38:38;101519.00;;;10.58;77.97
69574;BME280;62840;52.366;5.980;2023-02-18T08:41:06;101522.66;;;10.57;78.00
69574;BME280;62840;52.366;5.980;2023-02-18T08:43:33;101527.97;;;10.57;77.99
69574;BME280;62840;52.366;5.980;2023-02-18T08:46:02;101533.31;;;10.57;77.90
69574;BME280;62840;52.366;5.980;2023-02-18T08:48:29;101522.66;;;10.57;78.00
69574;BME280;62840;52.366;5.980;2023-02-18T08:50:55;101540.34;;;10.58;77.79
69574;BME280;62840;52.366;5.980;2023-02-18T08:53:21;101531.38;;;10.59;77.79
69574;BME280;62840;52.366;5.980;2023-02-18T08:55:47;101545.56;;;10.60;78.05
69574;BME280;62840;52.366;5.980;2023-02-18T08:58:13;101547.50;;;10.58;77.88
69574;BME280;62840;52.366;5.980;2023-02-18T09:00:40;101565.53;;;10.54;77.90
69574;BME280;62840;52.366;5.980;2023-02-18T09:03:11;101562.09;;;10.52;77.68
69574;BME280;62840;52.366;5.980;2023-02-18T09:05:38;101546.34;;;10.49;77.67
69574;BME280;62840;52.366;5.980;2023-02-18T09:08:04;101559.91;;;10.46;77.72
69574;BME280;62840;52.366;5.980;2023-02-18T09:10:30;101548.69;;;10.41;77.84
69574;BME280;62840;52.366;5.980;2023-02-18T09:12:55;101559.34;;;10.41;77.87
69574;BME280;62840;52.366;5.980;2023-02-18T09:15:21;101553.06;;;10.42;77.74
69574;BME280;62840;52.366;5.980;2023-02-18T09:17:47;101553.16;;;10.40;77.83
69574;BME280;62840;52.366;5.980;2023-02-18T09:20:15;101574.59;;;10.39;77.72
69574;BME280;62840;52.366;5.980;2023-02-18T09:22:41;101560.53;;;10.37;77.49
69574;BME280;62840;52.366;5.980;2023-02-18T09:25:07;101564.38;;;10.33;77.51
69574;BME280;62840;52.366;5.980;2023-02-18T09:27:33;101564.59;;;10.30;77.59
69574;BME280;62840;52.366;5.980;2023-02-18T09:29:59;101568.31;;;10.27;77.45
69574;BME280;62840;52.366;5.980;2023-02-18T09:32:25;101555.09;;;10.25;77.63
69574;BME280;62840;52.366;5.980;2023-02-18T09:34:50;101570.34;;;10.23;77.44
69574;BME280;62840;52.366;5.980;2023-02-18T09:37:19;101555.31;;;10.22;77.44
69574;BME280;62840;52.366;5.980;2023-02-18T09:39:44;101571.31;;;10.22;77.45
69574;BME280;62840;52.366;5.980;2023-02-18T09:42:13;101567.66;;;10.23;77.71
69574;BME280;62840;52.366;5.980;2023-02-18T09:44:48;101579.22;;;10.24;77.51
69574;BME280;62840;52.366;5.980;2023-02-18T09:47:29;101570.34;;;10.23;77.40
69574;BME280;62840;52.366;5.980;2023-02-18T09:49:59;101574.94;;;10.21;77.68
69574;BME280;62840;52.366;5.980;2023-02-18T09:52:35;101577.72;;;10.20;77.47
69574;BME280;62840;52.366;5.980;2023-02-18T09:55:14;101582.19;;;10.19;77.90
69574;BME280;62840;52.366;5.980;2023-02-18T09:57:45;101578.03;;;10.15;77.80
69574;BME280;62840;52.366;5.980;2023-02-18T10:00:18;101571.72;;;10.16;77.73
69574;BME280;62840;52.366;5.980;2023-02-18T10:02:52;101578.97;;;10.14;77.61
69574;BME280;62840;52.366;5.980;2023-02-18T10:05:22;101573.88;;;10.11;77.67
69574;BME280;62840;52.366;5.980;2023-02-18T10:07:57;101566.84;;;10.10;77.82
69574;BME280;62840;52.366;5.980;2023-02-18T10:10:35;101584.53;;;10.11;77.69
69574;BME280;62840;52.366;5.980;2023-02-18T10:13:09;101595.19;;;10.11;77.62
69574;BME280;62840;52.366;5.980;2023-02-18T10:15:37;101591.44;;;10.14;77.71
69574;BME280;62840;52.366;5.980;2023-02-18T10:18:06;101602.03;;;10.15;77.68
69574;BME280;62840;52.366;5.980;2023-02-18T10:20:46;101597.63;;;10.14;77.83
69574;BME280;62840;52.366;5.980;2023-02-18T10:23:18;101579.72;;;10.16;77.75
69574;BME280;62840;52.366;5.980;2023-02-18T10:25:47;101601.78;;;10.18;78.01
69574;BME280;62840;52.366;5.980;2023-02-18T10:28:18;101587.53;;;10.19;77.94
69574;BME280;62840;52.366;5.980;2023-02-18T10:30:52;101612.28;;;10.21;77.82
69574;BME280;62840;52.366;5.980;2023-02-18T10:33:31;101617.59;;;10.21;77.83
69574;BME280;62840;52.366;5.980;2023-02-18T10:36:14;101608.41;;;10.25;77.86
69574;BME280;62840;52.366;5.980;2023-02-18T10:39:05;101603.81;;;10.28;77.97
69574;BME280;62840;52.366;5.980;2023-02-18T10:41:49;101603.72;;;10.29;77.86
69574;BME280;62840;52.366;5.980;2023-02-18T10:44:30;101598.91;;;10.34;78.02
69574;BME280;62840;52.366;5.980;2023-02-18T10:47:14;101607.34;;;10.41;78.26
69574;BME280;62840;52.366;5.980;2023-02-18T10:49:57;101592.63;;;10.48;78.03
69574;BME280;62840;52.366;5.980;2023-02-18T10:52:27;101592.28;;;10.53;78.19
69574;BME280;62840;52.366;5.980;2023-02-18T10:55:02;101591.75;;;10.60;78.15
69574;BME280;62840;52.366;5.980;2023-02-18T10:57:31;101598.59;;;10.64;77.84
69574;BME280;62840;52.366;5.980;2023-02-18T10:59:59;101591.09;;;10.70;78.01
69574;BME280;62840;52.366;5.980;2023-02-18T11:02:29;101594.44;;;10.73;77.57
69574;BME280;62840;52.366;5.980;2023-02-18T11:04:57;101587.13;;;10.75;77.53
69574;BME280;62840;52.366;5.980;2023-02-18T11:07:32;101587.88;;;10.77;77.73
69574;BME280;62840;52.366;5.980;2023-02-18T11:10:12;101588.63;;;10.79;77.50
69574;BME280;62840;52.366;5.980;2023-02-18T11:12:45;101586.59;;;10.83;77.72
69574;BME280;62840;52.366;5.980;2023-02-18T11:15:18;101594.50;;;10.84;77.48
69574;BME280;62840;52.366;5.980;2023-02-18T11:17:47;101600.69;;;10.85;77.56
69574;BME280;62840;52.366;5.980;2023-02-18T11:20:24;101586.38;;;10.86;77.47
69574;BME280;62840;52.366;5.980;2023-02-18T11:23:14;101591.53;;;10.89;77.42
69574;BME280;62840;52.366;5.980;2023-02-18T11:25:53;101594.97;;;10.91;77.16
69574;BME280;62840;52.366;5.980;2023-02-18T11:28:28;101592.16;;;10.93;77.20
69574;BME280;62840;52.366;5.980;2023-02-18T11:31:02;101600.16;;;10.93;76.98
69574;BME280;62840;52.366;5.980;2023-02-18T11:33:32;101608.16;;;10.93;77.03
69574;BME280;62840;52.366;5.980;2023-02-18T11:36:04;101595.66;;;10.93;76.86
69574;BME280;62840;52.366;5.980;2023-02-18T11:38:44;101597.38;;;10.94;76.88
69574;BME280;62840;52.366;5.980;2023-02-18T11:41:18;101610.50;;;10.97;77.05
69574;BME280;62840;52.366;5.980;2023-02-18T11:43:48;101613.91;;;10.99;77.05
69574;BME280;62840;52.366;5.980;2023-02-18T11:46:19;101599.63;;;11.00;77.04
69574;BME280;62840;52.366;5.980;2023-02-18T11:48:49;101603.66;;;11.06;76.98
69574;BME280;62840;52.366;5.980;2023-02-18T11:51:20;101614.09;;;11.09;77.15
69574;BME280;62840;52.366;5.980;2023-02-18T11:53:58;101614.97;;;11.10;76.65
69574;BME280;62840;52.366;5.980;2023-02-18T11:56:33;101617.00;;;11.06;76.83
69574;BME280;62840;52.366;5.980;2023-02-18T11:59:03;101607.91;;;11.08;77.02
69574;BME280;62840;52.366;5.980;2023-02-18T12:01:38;101601.72;;;11.08;77.13
69574;BME280;62840;52.366;5.980;2023-02-18T12:04:13;101606.22;;;11.07;77.15
69574;BME280;62840;52.366;5.980;2023-02-18T12:06:48;101601.81;;;11.06;77.23
69574;BME280;62840;52.366;5.980;2023-02-18T12:09:26;101601.81;;;11.06;77.23
69574;BME280;62840;52.366;5.980;2023-02-18T12:12:05;101607.72;;;11.12;77.17
69574;BME280;62840;52.366;5.980;2023-02-18T12:14:38;101602.13;;;11.15;77.20
69574;BME280;62840;52.366;5.980;2023-02-18T12:17:14;101614.31;;;11.19;77.30
69574;BME280;62840;52.366;5.980;2023-02-18T12:20:14;101604.22;;;11.22;77.31
69574;BME280;62840;52.366;5.980;2023-02-18T12:22:55;101596.13;;;11.24;77.02
69574;BME280;62840;52.366;5.980;2023-02-18T12:25:42;101594.69;;;11.31;77.20
69574;BME280;62840;52.366;5.980;2023-02-18T12:28:33;101596.91;;;11.37;77.03
69574;BME280;62840;52.366;5.980;2023-02-18T12:31:40;101605.22;;;11.45;76.93
69574;BME280;62840;52.366;5.980;2023-02-18T12:34:36;101590.91;;;11.46;76.73
69574;BME280;62840;52.366;5.980;2023-02-18T12:37:35;101612.03;;;11.49;76.63
69574;BME280;62840;52.366;5.980;2023-02-18T12:40:29;101607.56;;;11.50;76.55
69574;BME280;62840;52.366;5.980;2023-02-18T12:43:14;101613.75;;;11.50;76.33
69574;BME280;62840;52.366;5.980;2023-02-18T12:52:12;101613.28;;;11.57;76.43
69574;BME280;62840;52.366;5.980;2023-02-18T12:55:03;101620.34;;;11.58;76.47
69574;BME280;62840;52.366;5.980;2023-02-18T12:57:52;101632.50;;;11.62;76.18
69574;BME280;62840;52.366;5.980;2023-02-18T13:00:51;101627.91;;;11.64;76.01
69574;BME280;62840;52.366;5.980;2023-02-18T13:07:37;101635.47;;;11.70;75.95
69574;BME280;62840;52.366;5.980;2023-02-18T13:13:35;101635.66;;;11.67;75.69
69574;BME280;62840;52.366;5.980;2023-02-18T13:16:12;101633.75;;;11.69;75.83
69574;BME280;62840;52.366;5.980;2023-02-18T13:18:46;101632.78;;;11.70;75.82
69574;BME280;62840;52.366;5.980;2023-02-18T13:21:23;101636.16;;;11.72;75.66
69574;BME280;62840;52.366;5.980;2023-02-18T13:23:56;101641.31;;;11.75;75.77
69574;BME280;62840;52.366;5.980;2023-02-18T13:26:28;101631.97;;;11.81;75.70
69574;BME280;62840;52.366;5.980;2023-02-18T13:29:08;101636.22;;;11.83;75.98
69574;BME280;62840;52.366;5.980;2023-02-18T13:31:55;101642.09;;;11.88;75.58
69574;BME280;62840;52.366;5.980;2023-02-18T13:34:34;101638.34;;;11.91;75.30